createdAt,value
2023-05-22T00:01:06.641Z,12.23
2023-05-22T00:03:33.638Z,11.90
2023-05-22T00:06:00.307Z,12.27
2023-05-22T00:08:29.858Z,11.97
2023-05-22T00:10:56.649Z,11.33
2023-05-22T00:13:23.174Z,12.00
2023-05-22T00:15:49.847Z,11.40
2023-05-22T00:18:16.465Z,11.53
2023-05-22T00:20:43.008Z,12.27
2023-05-22T00:23:10.442Z,10.90
2023-05-22T00:25:37.620Z,11.23
2023-05-22T00:28:04.710Z,10.80
2023-05-22T00:30:31.792Z,10.90
2023-05-22T00:32:58.409Z,11.07
2023-05-22T00:35:25.292Z,10.90
2023-05-22T00:37:51.825Z,10.80
2023-05-22T00:40:18.657Z,10.97
2023-05-22T00:42:45.317Z,11.23
2023-05-22T00:45:13.171Z,11.90
2023-05-22T00:47:40.069Z,11.50
2023-05-22T00:50:07.798Z,11.50
2023-05-22T00:52:41.125Z,12.63
2023-05-22T00:55:08.844Z,12.17
2023-05-22T00:57:37.071Z,11.57
2023-05-22T01:00:06.130Z,11.13
2023-05-22T01:02:33.017Z,11.63
2023-05-22T01:04:59.694Z,11.63
2023-05-22T01:07:26.293Z,11.40
2023-05-22T01:09:52.773Z,11.73
2023-05-22T01:12:30.933Z,11.57
2023-05-22T01:15:29.299Z,11.40
2023-05-22T01:18:11.051Z,11.50
2023-05-22T01:20:48.884Z,11.60
2023-05-22T01:23:46.473Z,10.67
2023-05-22T01:26:28.743Z,11.13
2023-05-22T01:29:11.953Z,10.53
2023-05-22T01:31:40.886Z,12.17
2023-05-22T01:34:10.889Z,10.73
2023-05-22T01:36:41.471Z,11.27
2023-05-22T01:39:09.009Z,11.23
2023-05-22T01:41:36.227Z,11.37
2023-05-22T01:44:03.676Z,11.80
2023-05-22T01:46:31.054Z,10.73
2023-05-22T01:48:58.458Z,11.73
2023-05-22T01:51:53.806Z,11.80
2023-05-22T01:54:37.096Z,11.20
2023-05-22T01:57:18.794Z,11.13
2023-05-22T02:00:04.812Z,10.47
2023-05-22T02:02:58.371Z,11.70
2023-05-22T02:05:29.326Z,11.77
2023-05-22T02:08:00.870Z,11.73
2023-05-22T02:10:29.070Z,12.10
2023-05-22T02:12:56.018Z,12.50
2023-05-22T02:15:23.251Z,11.17
2023-05-22T02:17:50.031Z,11.13
2023-05-22T02:20:16.701Z,10.77
2023-05-22T02:22:47.467Z,11.00
2023-05-22T02:25:15.188Z,11.20
2023-05-22T02:27:42.961Z,11.90
2023-05-22T02:30:10.889Z,11.80
2023-05-22T02:32:39.868Z,10.90
2023-05-22T02:35:07.763Z,11.43
2023-05-22T02:37:34.537Z,11.93
2023-05-22T02:40:01.048Z,10.90
2023-05-22T02:42:29.914Z,11.47
2023-05-22T02:44:56.597Z,10.43
2023-05-22T02:47:23.104Z,10.77
2023-05-22T02:49:50.806Z,10.87
2023-05-22T02:52:17.498Z,11.00
2023-05-22T02:54:44.395Z,11.50
2023-05-22T02:57:10.893Z,11.10
2023-05-22T02:59:37.421Z,11.03
2023-05-22T03:02:04.081Z,11.70
2023-05-22T03:04:30.594Z,11.23
2023-05-22T03:06:57.120Z,11.03
2023-05-22T03:09:23.672Z,10.97
2023-05-22T03:11:50.630Z,11.77
2023-05-22T03:14:17.604Z,10.67
2023-05-22T03:16:44.803Z,10.77
2023-05-22T03:19:12.940Z,11.70
2023-05-22T03:21:39.692Z,11.67
2023-05-22T03:24:07.504Z,11.53
2023-05-22T03:26:34.300Z,11.33
2023-05-22T03:29:03.406Z,10.80
2023-05-22T03:31:31.513Z,11.10
2023-05-22T03:34:18.223Z,11.83
2023-05-22T03:36:47.318Z,11.93
2023-05-22T03:39:16.148Z,10.90
2023-05-22T03:41:51.846Z,10.63
2023-05-22T03:44:18.878Z,11.57
2023-05-22T03:46:46.151Z,10.77
2023-05-22T03:49:12.612Z,11.33
2023-05-22T03:51:39.367Z,10.97
2023-05-22T03:54:05.869Z,12.40
2023-05-22T03:56:32.327Z,11.97
2023-05-22T03:58:58.836Z,11.87
2023-05-22T04:01:25.402Z,11.40
2023-05-22T04:03:51.872Z,11.73
2023-05-22T04:06:21.639Z,10.87
2023-05-22T04:08:48.860Z,11.00
2023-05-22T04:11:18.683Z,11.07
2023-05-22T04:13:45.530Z,10.97
2023-05-22T04:16:12.073Z,11.47
2023-05-22T04:18:38.545Z,10.80
2023-05-22T04:21:08.117Z,11.33
2023-05-22T04:23:34.672Z,10.20
2023-05-22T04:26:04.236Z,11.10
2023-05-22T04:28:30.660Z,11.10
2023-05-22T04:31:00.053Z,10.77
2023-05-22T04:33:30.291Z,10.33
2023-05-22T04:35:57.213Z,10.13
2023-05-22T04:38:26.391Z,10.33
2023-05-22T04:40:52.956Z,10.53
2023-05-22T04:43:19.441Z,10.63
2023-05-22T04:45:46.445Z,10.03
2023-05-22T04:48:13.654Z,10.20
2023-05-22T04:50:40.218Z,10.10
2023-05-22T04:53:07.009Z,9.47
2023-05-22T04:55:36.946Z,10.03
2023-05-22T04:58:03.664Z,9.83
2023-05-22T05:00:30.098Z,9.77
2023-05-22T05:02:57.585Z,9.30
2023-05-22T05:05:24.797Z,10.37
2023-05-22T05:07:51.836Z,10.20
2023-05-22T05:10:18.970Z,9.70
2023-05-22T05:12:45.773Z,9.93
2023-05-22T05:15:12.618Z,9.57
2023-05-22T05:17:39.476Z,9.37
2023-05-22T05:20:07.874Z,10.30
2023-05-22T05:22:34.649Z,9.87
2023-05-22T05:25:03.690Z,9.03
2023-05-22T05:27:30.460Z,10.13
2023-05-22T05:29:57.075Z,10.17
2023-05-22T05:32:28.971Z,9.83
2023-05-22T05:35:21.779Z,9.50
2023-05-22T05:37:51.687Z,9.37
2023-05-22T05:40:18.327Z,8.97
2023-05-22T05:42:51.562Z,9.70
2023-05-22T05:45:22.731Z,9.70
2023-05-22T05:47:51.962Z,9.17
2023-05-22T05:50:18.686Z,9.13
2023-05-22T05:52:45.595Z,9.93
2023-05-22T05:55:15.834Z,9.17
2023-05-22T05:57:42.440Z,9.30
2023-05-22T06:00:14.418Z,10.07
2023-05-22T06:02:41.787Z,9.30
2023-05-22T06:05:20.022Z,9.23
2023-05-22T06:07:50.461Z,8.27
2023-05-22T06:10:18.278Z,9.03
2023-05-22T06:13:05.240Z,8.90
2023-05-22T06:15:31.922Z,8.67
2023-05-22T06:17:58.862Z,9.50
2023-05-22T06:20:25.618Z,9.47
2023-05-22T06:22:52.067Z,9.67
2023-05-22T06:25:19.049Z,9.83
2023-05-22T06:27:47.360Z,8.90
2023-05-22T06:30:25.270Z,10.23
2023-05-22T06:32:55.700Z,9.77
2023-05-22T06:35:22.505Z,9.73
2023-05-22T06:37:49.396Z,8.80
2023-05-22T06:40:16.440Z,9.40
2023-05-22T06:42:48.735Z,8.90
2023-05-22T06:45:40.542Z,9.73
2023-05-22T06:48:19.082Z,9.13
2023-05-22T06:50:58.121Z,9.43
2023-05-22T06:53:25.961Z,9.13
2023-05-22T06:55:52.727Z,11.20
2023-05-22T06:58:28.645Z,9.90
2023-05-22T07:00:55.807Z,9.43
2023-05-22T07:03:30.566Z,8.93
2023-05-22T07:06:18.143Z,9.20
2023-05-22T07:08:44.971Z,8.50
2023-05-22T07:11:11.432Z,9.03
2023-05-22T07:13:37.902Z,9.40
2023-05-22T07:16:04.679Z,8.20
2023-05-22T07:18:31.396Z,9.10
2023-05-22T07:20:58.754Z,8.93
2023-05-22T07:23:26.353Z,8.87
2023-05-22T07:25:53.070Z,8.90
2023-05-22T07:28:22.454Z,8.60
2023-05-22T07:31:00.367Z,9.63
2023-05-22T07:33:27.254Z,8.97
2023-05-22T07:35:54.936Z,8.80
2023-05-22T07:38:22.449Z,8.90
2023-05-22T07:40:56.766Z,9.03
2023-05-22T07:43:25.109Z,9.00
2023-05-22T07:45:54.153Z,8.83
2023-05-22T07:48:25.030Z,8.87
2023-05-22T07:50:51.670Z,9.20
2023-05-22T07:53:18.115Z,8.43
2023-05-22T07:55:48.996Z,9.50
2023-05-22T07:58:15.594Z,9.50
2023-05-22T08:00:43.833Z,9.67
2023-05-22T08:03:10.948Z,8.60
2023-05-22T08:05:37.724Z,8.63
2023-05-22T08:08:04.734Z,8.63
2023-05-22T08:10:46.450Z,8.93
2023-05-22T08:13:15.586Z,8.87
2023-05-22T08:15:42.305Z,9.57
2023-05-22T08:18:08.855Z,8.73
2023-05-22T08:20:35.857Z,8.77
2023-05-22T08:23:02.311Z,9.60
2023-05-22T08:25:28.782Z,9.37
2023-05-22T08:27:55.291Z,9.27
2023-05-22T08:30:21.783Z,9.77
2023-05-22T08:32:48.343Z,9.23
2023-05-22T08:35:14.882Z,8.60
2023-05-22T08:37:41.520Z,9.27
2023-05-22T08:40:11.716Z,9.20
2023-05-22T08:42:38.607Z,8.90
2023-05-22T08:45:07.002Z,8.53
2023-05-22T08:47:36.769Z,8.90
2023-05-22T08:50:03.737Z,9.40
2023-05-22T08:52:35.028Z,8.90
2023-05-22T08:55:04.951Z,9.30
2023-05-22T08:57:32.818Z,9.73
2023-05-22T08:59:59.370Z,9.47
2023-05-22T09:02:26.951Z,9.10
2023-05-22T09:04:53.527Z,9.80
2023-05-22T09:07:22.013Z,9.15
2023-05-22T09:09:49.374Z,9.45
2023-05-22T09:12:16.322Z,9.60
2023-05-22T09:14:43.742Z,9.10
2023-05-22T09:17:11.901Z,8.15
2023-05-22T09:19:39.044Z,9.40
2023-05-22T09:22:06.377Z,9.18
2023-05-22T09:24:43.136Z,9.10
2023-05-22T09:27:11.063Z,8.50
2023-05-22T09:29:55.053Z,9.32
2023-05-22T09:32:21.856Z,9.45
2023-05-22T09:34:48.705Z,8.98
2023-05-22T09:37:16.744Z,9.77
2023-05-22T09:39:44.994Z,9.35
2023-05-22T09:42:14.926Z,9.43
2023-05-22T09:44:44.068Z,9.05
2023-05-22T09:47:11.234Z,8.40
2023-05-22T09:49:45.049Z,9.55
2023-05-22T09:52:15.146Z,8.82
2023-05-22T09:54:55.138Z,9.32
2023-05-22T09:57:24.222Z,9.40
2023-05-22T09:59:54.471Z,8.57
2023-05-22T10:02:25.708Z,9.07
2023-05-22T10:04:53.400Z,8.70
2023-05-22T10:07:27.264Z,10.32
2023-05-22T10:10:04.321Z,9.38
2023-05-22T10:12:33.761Z,9.00
2023-05-22T10:15:02.700Z,9.43
2023-05-22T10:17:29.636Z,9.05
2023-05-22T10:19:57.574Z,9.15
2023-05-22T10:22:26.659Z,8.93
2023-05-22T10:24:54.853Z,9.00
2023-05-22T10:27:21.755Z,8.77
2023-05-22T10:30:15.251Z,8.38
2023-05-22T10:33:03.140Z,9.52
2023-05-22T10:35:40.930Z,9.43
2023-05-22T10:38:34.554Z,9.23
2023-05-22T10:41:03.771Z,8.63
2023-05-22T10:43:33.546Z,8.88
2023-05-22T10:46:04.557Z,8.85
2023-05-22T10:48:40.527Z,8.90
2023-05-22T10:51:08.724Z,8.57
2023-05-22T10:53:36.241Z,8.75
2023-05-22T10:56:11.355Z,8.73
2023-05-22T10:58:38.838Z,7.90
2023-05-22T11:01:15.610Z,9.07
2023-05-22T11:03:54.602Z,8.95
2023-05-22T11:06:32.999Z,9.13
2023-05-22T11:08:59.762Z,9.05
2023-05-22T11:11:27.211Z,8.30
2023-05-22T11:14:03.262Z,8.75
2023-05-22T11:16:33.642Z,8.98
2023-05-22T11:19:21.150Z,8.95
2023-05-22T11:21:49.750Z,9.30
2023-05-22T11:24:17.882Z,8.88
2023-05-22T11:26:45.090Z,8.43
2023-05-22T11:29:11.686Z,8.60
2023-05-22T11:31:38.936Z,9.52
2023-05-22T11:34:05.540Z,8.43
2023-05-22T11:36:32.287Z,8.80
2023-05-22T11:39:00.104Z,8.68
2023-05-22T11:41:34.181Z,8.38
2023-05-22T11:44:01.518Z,8.68
2023-05-22T11:46:30.132Z,9.20
2023-05-22T11:48:56.979Z,8.70
2023-05-22T11:51:23.570Z,8.98
2023-05-22T11:53:50.475Z,9.40
2023-05-22T11:56:23.873Z,9.50
2023-05-22T11:58:51.726Z,8.85
2023-05-22T12:01:18.204Z,8.57
2023-05-22T12:03:45.325Z,9.02
2023-05-22T12:06:12.317Z,8.98
2023-05-22T12:08:40.591Z,8.80
2023-05-22T12:11:07.370Z,8.95
2023-05-22T12:13:33.957Z,8.88
2023-05-22T12:16:00.942Z,9.20
2023-05-22T12:18:35.334Z,9.40
2023-05-22T12:21:01.951Z,9.35
2023-05-22T12:23:28.715Z,10.02
2023-05-22T12:26:02.874Z,9.65
2023-05-22T12:28:33.346Z,9.45
2023-05-22T12:31:00.435Z,9.85
2023-05-22T12:33:31.532Z,9.15
2023-05-22T12:35:58.893Z,10.18
2023-05-22T12:38:27.242Z,10.05
2023-05-22T12:40:55.673Z,10.07
2023-05-22T12:43:26.353Z,9.00
2023-05-22T12:45:53.058Z,9.13
2023-05-22T12:48:19.882Z,10.77
2023-05-22T12:50:46.833Z,11.13
2023-05-22T12:53:13.551Z,9.48
2023-05-22T12:55:40.528Z,8.88
2023-05-22T12:58:07.273Z,9.48
2023-05-22T13:00:34.904Z,8.98
2023-05-22T13:03:01.962Z,9.57
2023-05-22T13:05:28.614Z,9.68
2023-05-22T13:07:55.122Z,9.13
2023-05-22T13:10:21.768Z,9.43
2023-05-22T13:12:51.061Z,9.50
2023-05-22T13:15:18.549Z,8.98
2023-05-22T13:17:46.199Z,10.02
2023-05-22T13:20:13.477Z,10.48
2023-05-22T13:22:41.199Z,10.35
2023-05-22T13:25:08.043Z,10.15
2023-05-22T13:27:34.472Z,9.57
2023-05-22T13:30:00.942Z,9.50
2023-05-22T13:32:27.421Z,9.52
2023-05-22T13:34:53.920Z,9.00
2023-05-22T13:37:20.890Z,8.98
2023-05-22T13:39:47.386Z,8.70
2023-05-22T13:42:13.935Z,8.80
2023-05-22T13:44:40.531Z,8.90
2023-05-22T13:47:07.059Z,8.52
2023-05-22T13:49:33.775Z,8.77
2023-05-22T13:52:00.367Z,9.10
2023-05-22T13:54:27.965Z,9.30
2023-05-22T13:56:54.606Z,9.43
2023-05-22T13:59:21.151Z,9.10
2023-05-22T14:01:47.666Z,8.68
2023-05-22T14:04:14.123Z,9.27
2023-05-22T14:06:40.610Z,9.35
2023-05-22T14:09:09.287Z,9.00
2023-05-22T14:11:35.837Z,9.20
2023-05-22T14:14:02.338Z,8.80
2023-05-22T14:16:28.772Z,9.02
2023-05-22T14:18:55.429Z,8.75
2023-05-22T14:21:22.092Z,8.98
2023-05-22T14:23:48.501Z,8.90
2023-05-22T14:26:15.214Z,8.63
2023-05-22T14:28:42.149Z,9.05
2023-05-22T14:31:08.676Z,8.80
2023-05-22T14:33:35.799Z,8.90
2023-05-22T14:36:02.401Z,8.77
2023-05-22T14:38:34.849Z,9.15
2023-05-22T14:41:02.093Z,9.07
2023-05-22T14:43:28.630Z,8.70
2023-05-22T14:45:56.359Z,9.55
2023-05-22T14:48:26.279Z,9.35
2023-05-22T14:50:53.801Z,9.27
2023-05-22T14:53:20.951Z,9.52
2023-05-22T14:55:47.612Z,9.43
2023-05-22T14:58:14.386Z,8.88
2023-05-22T15:00:42.664Z,9.60
2023-05-22T15:03:09.167Z,9.65
2023-05-22T15:05:36.014Z,11.25
2023-05-22T15:08:02.698Z,8.90
2023-05-22T15:10:29.283Z,9.48
2023-05-22T15:12:55.821Z,9.07
2023-05-22T15:15:22.483Z,9.20
2023-05-22T15:17:49.005Z,9.60
2023-05-22T15:20:15.540Z,9.88
2023-05-22T15:22:42.030Z,8.68
2023-05-22T15:25:16.830Z,9.38
2023-05-22T15:27:43.640Z,9.38
2023-05-22T15:30:11.336Z,11.13
2023-05-22T15:32:38.513Z,10.48
2023-05-22T15:35:06.592Z,10.82
2023-05-22T15:37:36.542Z,10.50
2023-05-22T15:40:04.309Z,10.80
2023-05-22T15:42:31.008Z,11.87
2023-05-22T15:44:59.345Z,11.70
2023-05-22T15:47:25.907Z,11.33
2023-05-22T15:49:52.714Z,11.53
2023-05-22T15:52:19.433Z,11.73
2023-05-22T15:54:46.302Z,12.00
2023-05-22T15:57:12.731Z,10.67
2023-05-22T15:59:39.194Z,11.93
2023-05-22T16:02:05.636Z,11.30
2023-05-22T16:04:32.790Z,10.93
2023-05-22T16:06:59.240Z,10.87
2023-05-22T16:09:25.659Z,19.60
2023-05-22T16:11:52.218Z,12.53
2023-05-22T16:14:18.662Z,9.90
2023-05-22T16:16:45.405Z,11.07
2023-05-22T16:19:11.998Z,11.17
2023-05-22T16:21:38.743Z,10.43
2023-05-22T16:24:06.848Z,10.83
2023-05-22T16:26:33.504Z,10.67
2023-05-22T16:29:00.005Z,10.90
2023-05-22T16:31:26.504Z,9.97
2023-05-22T16:33:53.211Z,10.67
2023-05-22T16:36:19.893Z,11.07
2023-05-22T16:38:46.753Z,9.80
2023-05-22T16:41:13.367Z,10.47
2023-05-22T16:43:39.836Z,10.13
2023-05-22T16:46:06.294Z,9.87
2023-05-22T16:48:32.753Z,10.60
2023-05-22T16:50:59.169Z,10.40
2023-05-22T16:53:25.588Z,9.90
2023-05-22T16:55:52.269Z,10.10
2023-05-22T16:58:19.038Z,10.77
2023-05-22T17:00:45.895Z,10.00
2023-05-22T17:03:13.000Z,10.20
2023-05-22T17:05:40.259Z,9.93
2023-05-22T17:08:06.997Z,9.67
2023-05-22T17:10:33.486Z,9.00
2023-05-22T17:12:59.932Z,8.93
2023-05-22T17:15:26.516Z,9.20
2023-05-22T17:17:53.282Z,8.97
2023-05-22T17:20:23.114Z,9.50
2023-05-22T17:22:49.987Z,8.33
2023-05-22T17:25:16.655Z,8.87
2023-05-22T17:27:43.178Z,8.60
2023-05-22T17:30:10.197Z,8.50
2023-05-22T17:32:37.879Z,8.77
2023-05-22T17:35:06.351Z,8.53
2023-05-22T17:37:32.872Z,7.97
2023-05-22T17:39:59.352Z,8.70
2023-05-22T17:42:25.905Z,8.27
2023-05-22T17:44:52.461Z,9.03
2023-05-22T17:47:18.914Z,8.37
2023-05-22T17:49:45.876Z,8.57
2023-05-22T17:52:13.319Z,8.73
2023-05-22T17:54:39.863Z,8.30
2023-05-22T17:57:06.329Z,8.37
2023-05-22T17:59:32.836Z,8.20
2023-05-22T18:01:59.464Z,8.40
2023-05-22T18:04:26.217Z,8.63
2023-05-22T18:06:52.754Z,8.60
2023-05-22T18:09:19.331Z,7.87
2023-05-22T18:11:46.157Z,7.80
2023-05-22T18:14:12.672Z,7.70
2023-05-22T18:16:39.237Z,7.83
2023-05-22T18:19:05.774Z,8.33
2023-05-22T18:21:32.355Z,7.90
2023-05-22T18:23:58.961Z,7.87
2023-05-22T18:26:26.621Z,8.27
2023-05-22T18:28:53.361Z,8.80
2023-05-22T18:31:20.049Z,8.93
2023-05-22T18:33:46.763Z,9.27
2023-05-22T18:36:13.812Z,9.87
2023-05-22T18:38:40.410Z,10.50
2023-05-22T18:41:07.325Z,10.63
2023-05-22T18:43:33.776Z,10.70
2023-05-22T18:46:00.251Z,10.83
2023-05-22T18:48:28.104Z,11.10
2023-05-22T18:50:57.425Z,10.83
2023-05-22T18:53:25.133Z,10.60
2023-05-22T18:55:52.322Z,10.40
2023-05-22T18:58:18.777Z,12.43
2023-05-22T19:00:45.640Z,12.47
2023-05-22T19:03:12.367Z,13.27
2023-05-22T19:05:38.921Z,12.27
2023-05-22T19:08:06.036Z,12.53
2023-05-22T19:10:33.017Z,12.33
2023-05-22T19:12:59.532Z,11.90
2023-05-22T19:15:26.085Z,13.37
2023-05-22T19:17:52.696Z,13.07
2023-05-22T19:20:19.256Z,13.00
2023-05-22T19:22:45.979Z,13.03
2023-05-22T19:25:12.423Z,13.23
2023-05-22T19:27:39.478Z,12.33
2023-05-22T19:30:06.737Z,13.70
2023-05-22T19:32:33.258Z,13.37
2023-05-22T19:34:59.782Z,14.50
2023-05-22T19:37:26.295Z,13.97
2023-05-22T19:39:54.048Z,12.73
2023-05-22T19:42:20.590Z,11.83
2023-05-22T19:44:47.280Z,13.27
2023-05-22T19:47:13.898Z,13.70
2023-05-22T19:49:40.500Z,13.37
2023-05-22T19:52:06.975Z,13.10
2023-05-22T19:54:35.540Z,13.07
2023-05-22T19:57:03.010Z,13.33
2023-05-22T19:59:29.463Z,14.47
2023-05-22T20:01:56.129Z,13.20
2023-05-22T20:04:23.230Z,14.07
2023-05-22T20:06:51.043Z,14.10
2023-05-22T20:09:17.566Z,14.60
2023-05-22T20:11:44.221Z,15.07
2023-05-22T20:14:12.641Z,14.23
2023-05-22T20:16:39.197Z,15.43
2023-05-22T20:19:05.729Z,15.50
2023-05-22T20:21:32.211Z,15.17
2023-05-22T20:23:59.096Z,15.60
2023-05-22T20:26:26.001Z,15.97
2023-05-22T20:28:52.525Z,16.27
2023-05-22T20:31:19.016Z,15.83
2023-05-22T20:33:45.688Z,15.83
2023-05-22T20:36:14.844Z,15.87
2023-05-22T20:38:43.000Z,15.67
2023-05-22T20:41:12.748Z,15.67
2023-05-22T20:43:42.603Z,15.23
2023-05-22T20:46:10.117Z,16.40
2023-05-22T20:48:36.587Z,16.60
2023-05-22T20:51:03.170Z,15.23
2023-05-22T20:53:29.648Z,16.67
2023-05-22T20:55:57.474Z,15.03
2023-05-22T20:58:24.029Z,15.60
2023-05-22T21:00:50.725Z,15.80
2023-05-22T21:03:17.658Z,15.37
2023-05-22T21:05:44.352Z,15.53
2023-05-22T21:08:10.893Z,16.27
2023-05-22T21:10:37.365Z,15.97
2023-05-22T21:13:03.897Z,16.83
2023-05-22T21:15:30.511Z,17.50
2023-05-22T21:17:56.982Z,16.20
2023-05-22T21:20:23.620Z,16.53
2023-05-22T21:22:50.280Z,16.27
2023-05-22T21:25:16.824Z,16.73
2023-05-22T21:27:43.264Z,16.73
2023-05-22T21:30:12.253Z,16.40
2023-05-22T21:32:38.716Z,16.23
2023-05-22T21:35:05.993Z,16.03
2023-05-22T21:37:32.510Z,17.20
2023-05-22T21:39:58.931Z,16.43
2023-05-22T21:42:26.204Z,18.50
2023-05-22T21:44:52.963Z,17.70
2023-05-22T21:47:19.394Z,17.80
2023-05-22T21:49:46.084Z,17.70
2023-05-22T21:52:12.745Z,16.93
2023-05-22T21:54:39.551Z,17.70
2023-05-22T21:57:06.428Z,19.40
2023-05-22T21:59:33.040Z,17.80
2023-05-22T22:02:24.671Z,18.50
2023-05-22T22:04:51.697Z,16.53
2023-05-22T22:07:18.136Z,17.17
2023-05-22T22:09:44.673Z,19.03
2023-05-22T22:12:11.571Z,16.63
2023-05-22T22:14:38.058Z,17.50
2023-05-22T22:17:05.749Z,17.80
2023-05-22T22:19:34.244Z,17.00
2023-05-22T22:22:01.374Z,16.00
2023-05-22T22:24:28.201Z,17.63
2023-05-22T22:26:54.890Z,19.00
2023-05-22T22:29:21.619Z,18.97
2023-05-22T22:31:48.312Z,18.03
2023-05-22T22:34:14.794Z,18.00
2023-05-22T22:36:41.248Z,18.80
2023-05-22T22:39:07.695Z,17.07
2023-05-22T22:41:34.158Z,18.77
2023-05-22T22:44:00.601Z,19.70
2023-05-22T22:46:27.257Z,22.20
2023-05-22T22:48:55.339Z,19.77
2023-05-22T22:51:21.993Z,19.03
2023-05-22T22:53:48.690Z,20.57
2023-05-22T22:56:15.170Z,21.97
2023-05-22T22:58:41.633Z,19.83
2023-05-22T23:01:08.249Z,20.93
2023-05-22T23:03:34.773Z,22.07
2023-05-22T23:06:01.945Z,21.97
2023-05-22T23:08:28.353Z,22.37
2023-05-22T23:10:54.790Z,23.27
2023-05-22T23:13:21.516Z,20.50
2023-05-22T23:15:48.365Z,23.17
2023-05-22T23:18:15.160Z,20.83
2023-05-22T23:20:41.664Z,22.73
2023-05-22T23:23:08.325Z,23.00
2023-05-22T23:25:34.830Z,21.63
2023-05-22T23:28:01.282Z,22.53
2023-05-22T23:30:27.923Z,23.07
2023-05-22T23:32:54.443Z,23.33
2023-05-22T23:35:21.447Z,23.03
2023-05-22T23:37:47.897Z,22.87
2023-05-22T23:40:14.403Z,23.53
2023-05-22T23:42:41.223Z,23.30
2023-05-22T23:45:08.087Z,23.53
2023-05-22T23:47:35.251Z,24.20
2023-05-22T23:50:01.803Z,25.57
2023-05-22T23:52:28.313Z,28.40
2023-05-22T23:54:54.747Z,29.10
2023-05-22T23:57:21.677Z,33.57
2023-05-22T23:59:48.433Z,33.70
